ESOE/ORB METAR and TAF weather

Enter ICAO airport designator
Station Type Date Time Source
ESOE METAR 2018/12/12 16:20 UTC NOAA

ESOE 121620Z 01007KT 9999 OVC020 00/M01 Q1033


Station Type Date Time Source
ESOE Decoded METAR 2018/12/12 16:20 UTC NOAA

Orebro Private , Sweden (ESOE) 59-14N 015-03E
Dec 12, 2018 - 11:20 AM EST / 2018.12.12 1620 UTC
Wind: from the N (010 degrees) at 8 MPH (7 KT):0
Visibility: greater than 7 mile(s):0
Sky conditions: overcast
Temperature: 32 F (0 C)
Windchill: 24 F (-4 C):1
Dew Point: 30 F (-1 C)
Relative Humidity: 92%
Pressure (altimeter): 30.50 in. Hg (1033 hPa)
ob: ESOE 121620Z 01007KT 9999 OVC020 00/M01 Q1033
cycle: 16

Station Type Date Time Source
ESOE TAF 2016/03/16 04:36 UTC NOAA

TAF TAF ESOE 160330Z 1604/1624 23005KT 9000 BR NSC PROB40 1604/1607 1200 BR


Example: see airport list